createdAt,value
2023-02-02T00:00:07.158Z,0.67
2023-02-02T00:08:51.032Z,0.51
2023-02-02T00:17:14.248Z,0.36
2023-02-02T00:25:37.177Z,0.24
2023-02-02T00:34:00.671Z,0.14
2023-02-02T00:42:24.878Z,0.15
2023-02-02T00:50:47.901Z,0.21
2023-02-02T00:59:10.874Z,0.25
2023-02-02T01:07:33.776Z,0.26
2023-02-02T01:15:58.381Z,0.35
2023-02-02T01:24:22.263Z,0.55
2023-02-02T01:32:45.150Z,0.77
2023-02-02T01:41:10.840Z,0.90
2023-02-02T01:49:34.253Z,0.97
2023-02-02T01:58:09.012Z,1.07
2023-02-02T02:06:32.232Z,1.19
2023-02-02T02:15:15.736Z,1.19
2023-02-02T02:24:19.467Z,1.18
2023-02-02T02:32:54.901Z,1.24
2023-02-02T02:41:25.585Z,1.28
2023-02-02T02:49:49.482Z,1.16
2023-02-02T02:58:32.799Z,1.07
2023-02-02T03:07:05.932Z,1.03
2023-02-02T03:15:28.872Z,1.02
2023-02-02T03:23:51.864Z,0.98
2023-02-02T03:32:14.763Z,1.00
2023-02-02T03:40:37.696Z,1.04
2023-02-02T03:49:02.362Z,1.01
2023-02-02T03:57:25.381Z,1.00
2023-02-02T04:05:51.511Z,1.07
2023-02-02T04:14:14.556Z,1.18
2023-02-02T04:22:37.561Z,1.25
2023-02-02T04:31:00.662Z,1.22
2023-02-02T04:39:23.795Z,1.23
2023-02-02T04:47:46.758Z,1.28
2023-02-02T04:56:13.763Z,1.34
2023-02-02T05:04:36.898Z,1.37
2023-02-02T05:13:00.048Z,1.34
2023-02-02T05:21:23.483Z,1.34
2023-02-02T05:29:48.421Z,1.38
2023-02-02T05:38:11.361Z,1.43
2023-02-02T05:46:34.611Z,1.40
2023-02-02T05:54:57.650Z,1.38
2023-02-02T06:03:21.739Z,1.39
2023-02-02T06:11:45.431Z,1.43
2023-02-02T06:20:08.943Z,1.38
2023-02-02T06:28:32.119Z,1.37
2023-02-02T06:36:55.105Z,1.40
2023-02-02T06:45:18.052Z,1.41
2023-02-02T06:53:41.038Z,1.43
2023-02-02T07:02:04.035Z,1.56
2023-02-02T07:11:11.111Z,1.60
2023-02-02T07:19:09.773Z,1.58
2023-02-02T07:27:33.392Z,1.63
2023-02-02T07:35:56.351Z,1.71
2023-02-02T07:44:19.305Z,1.70
2023-02-02T07:52:42.776Z,1.69
2023-02-02T08:01:07.654Z,1.72
2023-02-02T08:09:33.312Z,1.76
2023-02-02T08:17:56.247Z,1.81
2023-02-02T08:26:23.484Z,1.82
2023-02-02T08:34:49.088Z,1.82
2023-02-02T08:43:12.061Z,1.89
2023-02-02T08:51:40.597Z,1.93
2023-02-02T09:00:07.324Z,1.88
2023-02-02T09:08:30.287Z,1.85
2023-02-02T09:16:53.258Z,1.85
2023-02-02T09:25:16.504Z,1.89
2023-02-02T09:33:40.850Z,1.89
2023-02-02T09:42:35.081Z,1.87
2023-02-02T09:51:06.422Z,1.91
2023-02-02T09:59:35.862Z,1.96
2023-02-02T10:08:05.743Z,2.08
2023-02-02T10:16:30.007Z,2.18
2023-02-02T10:24:53.085Z,2.26
2023-02-02T10:33:39.455Z,2.32
2023-02-02T10:42:22.779Z,2.36
2023-02-02T10:50:58.604Z,2.41
2023-02-02T10:59:30.643Z,2.37
2023-02-02T11:07:54.477Z,2.26
2023-02-02T11:16:17.478Z,2.23
2023-02-02T11:24:50.142Z,2.28
2023-02-02T11:33:34.963Z,2.24
2023-02-02T11:42:08.153Z,2.19
2023-02-02T11:50:31.774Z,2.19
2023-02-02T11:58:59.296Z,2.24
2023-02-02T12:07:22.100Z,2.20
2023-02-02T12:16:15.829Z,2.22
2023-02-02T12:25:19.404Z,2.31
2023-02-02T12:33:59.880Z,2.38
2023-02-02T12:42:34.049Z,2.40
2023-02-02T12:51:19.061Z,2.39
2023-02-02T13:00:04.844Z,2.31
2023-02-02T13:08:37.933Z,2.25
2023-02-02T13:17:09.856Z,2.20
2023-02-02T13:25:42.478Z,2.13
2023-02-02T13:34:14.900Z,2.10
2023-02-02T13:42:52.527Z,2.13
2023-02-02T13:51:24.630Z,2.10
2023-02-02T13:59:57.289Z,1.99
2023-02-02T14:08:25.855Z,1.88
2023-02-02T14:16:50.772Z,1.80
2023-02-02T14:25:29.241Z,1.68
2023-02-02T14:33:52.162Z,1.62
2023-02-02T14:42:56.914Z,1.66
2023-02-02T14:51:26.714Z,1.70
2023-02-02T14:59:50.138Z,1.76
2023-02-02T15:08:22.036Z,1.80
2023-02-02T15:16:46.456Z,1.77
2023-02-02T15:25:36.048Z,1.70
2023-02-02T15:34:02.776Z,1.64
2023-02-02T15:42:53.353Z,1.63
2023-02-02T15:51:17.806Z,1.63
2023-02-02T15:59:42.842Z,1.58
2023-02-02T16:08:13.343Z,1.57
2023-02-02T16:16:39.912Z,1.60
2023-02-02T16:25:09.907Z,1.64
2023-02-02T16:33:40.144Z,1.58
2023-02-02T16:42:23.100Z,1.31
2023-02-02T16:50:49.574Z,1.09
2023-02-02T16:59:38.004Z,0.96
2023-02-02T17:08:11.010Z,0.93
2023-02-02T17:16:34.070Z,0.86
2023-02-02T17:24:59.627Z,0.70
2023-02-02T17:33:24.891Z,0.53
2023-02-02T17:41:48.877Z,0.41
2023-02-02T17:50:12.774Z,0.30
2023-02-02T17:58:37.226Z,0.28
2023-02-02T18:07:01.771Z,0.31
2023-02-02T18:15:25.013Z,0.32
2023-02-02T18:23:49.417Z,0.34
2023-02-02T18:32:12.641Z,0.37
2023-02-02T18:40:35.570Z,0.43
2023-02-02T18:48:58.570Z,0.50
2023-02-02T18:57:22.263Z,0.52
2023-02-02T19:06:03.695Z,0.54
2023-02-02T19:14:32.182Z,0.54
2023-02-02T19:23:03.908Z,0.54
2023-02-02T19:31:28.287Z,0.57
2023-02-02T19:40:20.328Z,0.57
2023-02-02T19:48:43.310Z,0.60
2023-02-02T19:57:06.133Z,0.65
2023-02-02T20:05:39.836Z,0.62
2023-02-02T20:14:19.033Z,0.60
2023-02-02T20:22:42.011Z,0.63
2023-02-02T20:31:06.010Z,0.64
2023-02-02T20:39:40.185Z,0.62
2023-02-02T20:48:03.107Z,0.64
2023-02-02T20:56:26.094Z,0.58
2023-02-02T21:04:50.842Z,0.40
2023-02-02T21:13:13.942Z,0.19
2023-02-02T21:21:36.902Z,0.02
2023-02-02T21:29:59.820Z,-0.05
2023-02-02T21:38:22.753Z,-0.07
2023-02-02T21:46:49.137Z,-0.08
2023-02-02T21:55:21.389Z,-0.10
2023-02-02T22:03:46.925Z,-0.14
2023-02-02T22:12:36.212Z,-0.22
2023-02-02T22:20:59.631Z,-0.39
2023-02-02T22:29:24.609Z,-0.58
2023-02-02T22:37:47.776Z,-0.68
2023-02-02T22:46:10.754Z,-0.78
2023-02-02T22:54:33.713Z,-0.88
2023-02-02T23:02:57.391Z,-0.95
2023-02-02T23:11:20.375Z,-1.00
2023-02-02T23:19:43.357Z,-1.08
2023-02-02T23:28:07.837Z,-1.11
2023-02-02T23:36:30.754Z,-1.18
2023-02-02T23:44:53.773Z,-1.22
2023-02-02T23:53:17.023Z,-1.22
